sensor_id;sensor_type;location;lat;lon;timestamp;pressure;altitude;pressure_sealevel;temperature;humidity
22862;BME280;11598;50.652;6.172;2023-05-18T00:06:34;97381.69;;;3.94;88.93
22862;BME280;11598;50.652;6.172;2023-05-18T00:16:34;97372.91;;;3.99;88.58
22862;BME280;11598;50.652;6.172;2023-05-18T00:26:36;97380.63;;;3.99;88.70
22862;BME280;11598;50.652;6.172;2023-05-18T00:36:37;97377.97;;;4.02;88.83
22862;BME280;11598;50.652;6.172;2023-05-18T00:46:38;97373.03;;;3.96;89.13
22862;BME280;11598;50.652;6.172;2023-05-18T00:56:39;97363.06;;;3.86;89.80
22862;BME280;11598;50.652;6.172;2023-05-18T01:06:41;97357.22;;;3.82;89.95
22862;BME280;11598;50.652;6.172;2023-05-18T01:16:53;97355.59;;;3.79;89.44
22862;BME280;11598;50.652;6.172;2023-05-18T01:26:55;97350.84;;;3.67;90.18
22862;BME280;11598;50.652;6.172;2023-05-18T01:36:58;97357.28;;;3.54;90.78
22862;BME280;11598;50.652;6.172;2023-05-18T01:56:59;97350.91;;;3.39;91.58
22862;BME280;11598;50.652;6.172;2023-05-18T02:07:00;97344.06;;;3.38;91.75
22862;BME280;11598;50.652;6.172;2023-05-18T02:17:00;97345.97;;;3.31;92.10
22862;BME280;11598;50.652;6.172;2023-05-18T02:27:00;97357.13;;;3.32;92.43
22862;BME280;11598;50.652;6.172;2023-05-18T02:37:01;97349.41;;;3.32;92.40
22862;BME280;11598;50.652;6.172;2023-05-18T02:47:03;97352.66;;;3.37;92.15
22862;BME280;11598;50.652;6.172;2023-05-18T02:57:03;97353.41;;;3.41;91.84
22862;BME280;11598;50.652;6.172;2023-05-18T03:07:04;97354.88;;;3.21;91.95
22862;BME280;11598;50.652;6.172;2023-05-18T03:17:06;97351.25;;;2.99;92.65
22862;BME280;11598;50.652;6.172;2023-05-18T03:27:06;97358.72;;;2.78;93.24
22862;BME280;11598;50.652;6.172;2023-05-18T03:37:07;97364.47;;;2.57;93.79
22862;BME280;11598;50.652;6.172;2023-05-18T03:47:07;97369.19;;;2.39;94.42
22862;BME280;11598;50.652;6.172;2023-05-18T03:57:07;97369.44;;;2.30;94.84
22862;BME280;11598;50.652;6.172;2023-05-18T04:07:08;97366.72;;;2.36;95.68
22862;BME280;11598;50.652;6.172;2023-05-18T04:17:08;97363.34;;;2.65;96.48
22862;BME280;11598;50.652;6.172;2023-05-18T04:27:09;97366.09;;;3.17;96.88
22862;BME280;11598;50.652;6.172;2023-05-18T04:37:09;97371.41;;;3.67;95.72
22862;BME280;11598;50.652;6.172;2023-05-18T04:47:09;97379.28;;;4.14;94.43
22862;BME280;11598;50.652;6.172;2023-05-18T04:57:10;97381.78;;;4.66;92.84
22862;BME280;11598;50.652;6.172;2023-05-18T05:07:10;97379.28;;;5.10;90.35
22862;BME280;11598;50.652;6.172;2023-05-18T05:17:11;97388.06;;;5.50;88.63
22862;BME280;11598;50.652;6.172;2023-05-18T05:27:11;97383.81;;;6.34;87.10
22862;BME280;11598;50.652;6.172;2023-05-18T05:37:12;97379.81;;;7.06;84.32
22862;BME280;11598;50.652;6.172;2023-05-18T05:47:13;97388.47;;;8.14;80.09
22862;BME280;11598;50.652;6.172;2023-05-18T05:57:13;97383.69;;;8.74;74.58
22862;BME280;11598;50.652;6.172;2023-05-18T06:07:14;97392.03;;;8.97;72.82
22862;BME280;11598;50.652;6.172;2023-05-18T06:17:14;97395.91;;;9.37;69.21
22862;BME280;11598;50.652;6.172;2023-05-18T06:27:14;97403.19;;;9.62;66.49
22862;BME280;11598;50.652;6.172;2023-05-18T06:37:16;97411.22;;;10.04;65.41
22862;BME280;11598;50.652;6.172;2023-05-18T06:47:17;97407.56;;;9.92;60.68
22862;BME280;11598;50.652;6.172;2023-05-18T06:57:17;97414.28;;;9.80;59.23
22862;BME280;11598;50.652;6.172;2023-05-18T07:07:17;97426.47;;;10.70;56.68
22862;BME280;11598;50.652;6.172;2023-05-18T07:17:18;97421.03;;;10.45;55.86
22862;BME280;11598;50.652;6.172;2023-05-18T07:27:18;97431.47;;;10.88;54.86
22862;BME280;11598;50.652;6.172;2023-05-18T07:37:19;97425.31;;;10.74;52.86
22862;BME280;11598;50.652;6.172;2023-05-18T07:47:19;97416.75;;;11.44;53.28
22862;BME280;11598;50.652;6.172;2023-05-18T07:57:20;97410.69;;;12.39;51.28
22862;BME280;11598;50.652;6.172;2023-05-18T08:07:21;97412.66;;;13.00;49.98
22862;BME280;11598;50.652;6.172;2023-05-18T08:17:21;97408.19;;;12.63;48.73
22862;BME280;11598;50.652;6.172;2023-05-18T08:27:21;97409.88;;;12.12;49.22
22862;BME280;11598;50.652;6.172;2023-05-18T08:37:22;97395.69;;;11.34;49.50
22862;BME280;11598;50.652;6.172;2023-05-18T08:47:29;97400.34;;;10.86;51.46
22862;BME280;11598;50.652;6.172;2023-05-18T08:57:31;97406.03;;;10.78;52.00
22862;BME280;11598;50.652;6.172;2023-05-18T09:07:34;97406.22;;;10.61;52.13
22862;BME280;11598;50.652;6.172;2023-05-18T09:17:36;97399.03;;;10.50;54.03
22862;BME280;11598;50.652;6.172;2023-05-18T09:27:37;97402.78;;;10.61;55.69
22862;BME280;11598;50.652;6.172;2023-05-18T09:37:40;97402.94;;;10.57;56.44
22862;BME280;11598;50.652;6.172;2023-05-18T09:47:40;97404.63;;;10.58;54.79
22862;BME280;11598;50.652;6.172;2023-05-18T09:57:59;97399.16;;;10.63;55.58
22862;BME280;11598;50.652;6.172;2023-05-18T10:08:02;97398.22;;;10.50;56.62
22862;BME280;11598;50.652;6.172;2023-05-18T10:18:03;97390.22;;;10.67;56.58
22862;BME280;11598;50.652;6.172;2023-05-18T10:28:06;97387.75;;;10.94;55.39
22862;BME280;11598;50.652;6.172;2023-05-18T10:38:07;97389.78;;;11.04;54.90
22862;BME280;11598;50.652;6.172;2023-05-18T10:48:09;97385.50;;;11.03;54.71
22862;BME280;11598;50.652;6.172;2023-05-18T10:58:11;97379.28;;;10.91;55.70
22862;BME280;11598;50.652;6.172;2023-05-18T11:08:23;97374.25;;;11.16;54.97
22862;BME280;11598;50.652;6.172;2023-05-18T11:28:45;97377.25;;;11.10;53.75
22862;BME280;11598;50.652;6.172;2023-05-18T11:38:48;97354.63;;;11.25;53.50
22862;BME280;11598;50.652;6.172;2023-05-18T11:48:49;97362.13;;;11.44;53.54
22862;BME280;11598;50.652;6.172;2023-05-18T11:59:12;97347.28;;;11.59;53.55
22862;BME280;11598;50.652;6.172;2023-05-18T12:09:13;97346.81;;;11.67;54.70
22862;BME280;11598;50.652;6.172;2023-05-18T12:19:16;97335.97;;;11.73;53.46
22862;BME280;11598;50.652;6.172;2023-05-18T12:29:19;97333.00;;;11.79;53.88
22862;BME280;11598;50.652;6.172;2023-05-18T12:39:21;97331.97;;;11.81;53.84
22862;BME280;11598;50.652;6.172;2023-05-18T12:49:21;97326.84;;;11.80;51.87
22862;BME280;11598;50.652;6.172;2023-05-18T12:59:22;97321.84;;;11.77;51.96
22862;BME280;11598;50.652;6.172;2023-05-18T13:09:23;97316.81;;;12.01;52.57
22862;BME280;11598;50.652;6.172;2023-05-18T13:19:24;97302.97;;;12.00;50.77
22862;BME280;11598;50.652;6.172;2023-05-18T13:29:25;97298.00;;;12.23;52.70
22862;BME280;11598;50.652;6.172;2023-05-18T13:39:25;97290.69;;;12.28;51.52
22862;BME280;11598;50.652;6.172;2023-05-18T13:49:25;97277.22;;;12.34;51.82
22862;BME280;11598;50.652;6.172;2023-05-18T13:59:26;97273.47;;;12.38;52.10
22862;BME280;11598;50.652;6.172;2023-05-18T14:09:26;97266.72;;;12.36;52.43
22862;BME280;11598;50.652;6.172;2023-05-18T14:19:30;97263.69;;;12.42;52.01
22862;BME280;11598;50.652;6.172;2023-05-18T14:29:30;97264.53;;;12.42;52.97
22862;BME280;11598;50.652;6.172;2023-05-18T14:39:32;97266.81;;;12.47;52.83
22862;BME280;11598;50.652;6.172;2023-05-18T14:49:32;97271.69;;;12.39;53.88
22862;BME280;11598;50.652;6.172;2023-05-18T14:59:33;97270.56;;;12.43;53.91
22862;BME280;11598;50.652;6.172;2023-05-18T15:09:33;97271.38;;;12.56;54.17
22862;BME280;11598;50.652;6.172;2023-05-18T15:19:33;97260.69;;;12.72;53.85
22862;BME280;11598;50.652;6.172;2023-05-18T15:29:34;97258.81;;;12.87;53.37
22862;BME280;11598;50.652;6.172;2023-05-18T15:39:36;97266.50;;;12.88;53.81
22862;BME280;11598;50.652;6.172;2023-05-18T15:49:37;97267.47;;;12.87;53.99
22862;BME280;11598;50.652;6.172;2023-05-18T15:59:37;97247.28;;;12.65;54.74
22862;BME280;11598;50.652;6.172;2023-05-18T16:09:38;97251.59;;;12.54;55.10
22862;BME280;11598;50.652;6.172;2023-05-18T16:19:38;97254.69;;;12.46;55.80
22862;BME280;11598;50.652;6.172;2023-05-18T16:29:38;97256.19;;;12.37;55.78
22862;BME280;11598;50.652;6.172;2023-05-18T16:39:40;97249.53;;;12.33;56.28
22862;BME280;11598;50.652;6.172;2023-05-18T16:49:40;97244.53;;;12.30;56.57
22862;BME280;11598;50.652;6.172;2023-05-18T16:59:44;97232.66;;;12.26;56.80
22862;BME280;11598;50.652;6.172;2023-05-18T17:09:44;97235.56;;;12.09;57.45
22862;BME280;11598;50.652;6.172;2023-05-18T17:19:45;97230.66;;;11.91;58.79
22862;BME280;11598;50.652;6.172;2023-05-18T17:29:45;97240.09;;;11.79;59.16
22862;BME280;11598;50.652;6.172;2023-05-18T17:39:46;97248.00;;;11.65;59.56
22862;BME280;11598;50.652;6.172;2023-05-18T17:49:46;97239.31;;;11.52;59.82
22862;BME280;11598;50.652;6.172;2023-05-18T17:59:47;97236.41;;;11.43;60.44
22862;BME280;11598;50.652;6.172;2023-05-18T18:09:47;97248.31;;;11.33;61.35
22862;BME280;11598;50.652;6.172;2023-05-18T18:19:47;97236.84;;;11.23;61.71
22862;BME280;11598;50.652;6.172;2023-05-18T18:29:48;97241.38;;;11.07;62.40
22862;BME280;11598;50.652;6.172;2023-05-18T18:39:48;97253.13;;;10.85;63.37
22862;BME280;11598;50.652;6.172;2023-05-18T18:49:48;97251.88;;;10.64;64.44
22862;BME280;11598;50.652;6.172;2023-05-18T18:59:49;97259.28;;;10.41;65.06
22862;BME280;11598;50.652;6.172;2023-05-18T19:09:50;97264.09;;;10.19;65.52
22862;BME280;11598;50.652;6.172;2023-05-18T19:19:51;97271.41;;;9.98;66.25
22862;BME280;11598;50.652;6.172;2023-05-18T19:29:52;97273.38;;;9.78;66.76
22862;BME280;11598;50.652;6.172;2023-05-18T19:39:52;97286.59;;;9.59;67.57
22862;BME280;11598;50.652;6.172;2023-05-18T19:49:53;97296.09;;;9.44;68.14
22862;BME280;11598;50.652;6.172;2023-05-18T19:59:53;97302.16;;;9.29;68.68
22862;BME280;11598;50.652;6.172;2023-05-18T20:09:54;97309.75;;;9.16;69.07
22862;BME280;11598;50.652;6.172;2023-05-18T20:19:54;97304.31;;;9.05;69.69
22862;BME280;11598;50.652;6.172;2023-05-18T20:29:55;97315.03;;;8.99;70.30
22862;BME280;11598;50.652;6.172;2023-05-18T20:39:55;97314.59;;;8.91;70.76
22862;BME280;11598;50.652;6.172;2023-05-18T20:49:56;97317.78;;;8.80;71.37
22862;BME280;11598;50.652;6.172;2023-05-18T21:00:00;97318.34;;;8.69;72.09
22862;BME280;11598;50.652;6.172;2023-05-18T21:10:01;97326.00;;;8.55;73.00
22862;BME280;11598;50.652;6.172;2023-05-18T21:20:01;97322.47;;;8.40;73.66
22862;BME280;11598;50.652;6.172;2023-05-18T21:30:03;97317.72;;;8.31;74.00
22862;BME280;11598;50.652;6.172;2023-05-18T21:40:04;97317.38;;;8.21;74.61
22862;BME280;11598;50.652;6.172;2023-05-18T21:50:05;97314.84;;;8.19;74.81
22862;BME280;11598;50.652;6.172;2023-05-18T22:00:06;97310.19;;;8.09;75.05
22862;BME280;11598;50.652;6.172;2023-05-18T22:10:07;97314.19;;;7.98;75.74
22862;BME280;11598;50.652;6.172;2023-05-18T22:20:08;97312.19;;;7.69;76.92
22862;BME280;11598;50.652;6.172;2023-05-18T22:30:08;97303.91;;;7.08;79.38
22862;BME280;11598;50.652;6.172;2023-05-18T22:40:09;97317.94;;;6.65;81.37
22862;BME280;11598;50.652;6.172;2023-05-18T22:50:10;97311.41;;;6.37;83.38
22862;BME280;11598;50.652;6.172;2023-05-18T23:00:12;97306.91;;;6.61;83.08
22862;BME280;11598;50.652;6.172;2023-05-18T23:10:13;97317.56;;;6.53;83.08
22862;BME280;11598;50.652;6.172;2023-05-18T23:20:13;97321.00;;;6.14;84.68
22862;BME280;11598;50.652;6.172;2023-05-18T23:30:13;97311.03;;;5.85;86.38
22862;BME280;11598;50.652;6.172;2023-05-18T23:40:14;97297.09;;;5.68;87.76
22862;BME280;11598;50.652;6.172;2023-05-18T23:50:17;97294.56;;;5.46;88.45
